Terminal Aerodrome Forecast
Issued by NWS Lake Charles, LA

Home | Current Version | Previous Version | Text Only | Print | Product List | Glossary On
Versions: 1 2 3 4 5 6 7 8 9 10 11 12 13 14 15 16 17 18 19
000
FTUS44 KLCH 290520
TAFLCH
TAF
KLCH 290520Z 2906/3006 15012G18KT P6SM BKN015
     FM290800 15012G18KT P6SM BKN007
     FM291400 15013G19KT P6SM BKN025
     FM291800 16018G24KT P6SM SCT025 BKN050 PROB30 3003/3006 4SM
      TSRA BKN025CB=

USA.gov is the U.S. government's official web portal to all federal, state and local government web resources and services.